sensor_id;sensor_type;location;lat;lon;timestamp;temperature;humidity
63317;DHT22;49822;41.468;13.560;2023-07-13T00:01:51;24.20;76.10
63317;DHT22;49822;41.468;13.560;2023-07-13T00:04:20;24.20;76.40
63317;DHT22;49822;41.468;13.560;2023-07-13T00:06:47;24.30;75.40
63317;DHT22;49822;41.468;13.560;2023-07-13T00:09:15;24.20;75.40
63317;DHT22;49822;41.468;13.560;2023-07-13T00:11:41;24.10;75.30
63317;DHT22;49822;41.468;13.560;2023-07-13T00:14:08;24.00;75.50
63317;DHT22;49822;41.468;13.560;2023-07-13T00:16:37;23.80;76.00
63317;DHT22;49822;41.468;13.560;2023-07-13T00:19:04;23.70;75.70
63317;DHT22;49822;41.468;13.560;2023-07-13T00:21:31;23.60;76.90
63317;DHT22;49822;41.468;13.560;2023-07-13T00:23:57;23.70;76.50
63317;DHT22;49822;41.468;13.560;2023-07-13T00:26:23;23.70;76.10
63317;DHT22;49822;41.468;13.560;2023-07-13T00:28:49;23.70;76.50
63317;DHT22;49822;41.468;13.560;2023-07-13T00:31:15;23.80;75.80
63317;DHT22;49822;41.468;13.560;2023-07-13T00:33:42;23.70;75.90
63317;DHT22;49822;41.468;13.560;2023-07-13T00:36:09;23.60;76.00
63317;DHT22;49822;41.468;13.560;2023-07-13T00:38:36;23.90;76.10
63317;DHT22;49822;41.468;13.560;2023-07-13T00:41:03;23.60;77.80
63317;DHT22;49822;41.468;13.560;2023-07-13T00:43:30;23.40;77.50
63317;DHT22;49822;41.468;13.560;2023-07-13T00:46:11;23.30;77.10
63317;DHT22;49822;41.468;13.560;2023-07-13T00:48:38;23.50;77.60
63317;DHT22;49822;41.468;13.560;2023-07-13T00:51:04;23.60;77.80
63317;DHT22;49822;41.468;13.560;2023-07-13T00:53:32;23.60;77.40
63317;DHT22;49822;41.468;13.560;2023-07-13T00:56:01;23.50;77.90
63317;DHT22;49822;41.468;13.560;2023-07-13T00:58:27;23.50;77.90
63317;DHT22;49822;41.468;13.560;2023-07-13T01:01:18;23.40;77.90
63317;DHT22;49822;41.468;13.560;2023-07-13T01:03:45;23.30;77.90
63317;DHT22;49822;41.468;13.560;2023-07-13T01:06:13;23.30;77.90
63317;DHT22;49822;41.468;13.560;2023-07-13T01:08:39;23.20;78.50
63317;DHT22;49822;41.468;13.560;2023-07-13T01:11:06;22.90;78.20
63317;DHT22;49822;41.468;13.560;2023-07-13T01:13:34;22.90;78.20
63317;DHT22;49822;41.468;13.560;2023-07-13T01:16:11;23.10;78.40
63317;DHT22;49822;41.468;13.560;2023-07-13T01:18:39;23.20;78.40
63317;DHT22;49822;41.468;13.560;2023-07-13T01:21:05;23.40;78.40
63317;DHT22;49822;41.468;13.560;2023-07-13T01:23:32;23.10;78.10
63317;DHT22;49822;41.468;13.560;2023-07-13T01:25:59;23.10;78.60
63317;DHT22;49822;41.468;13.560;2023-07-13T01:28:26;23.20;78.50
63317;DHT22;49822;41.468;13.560;2023-07-13T01:30:56;23.10;78.50
63317;DHT22;49822;41.468;13.560;2023-07-13T01:33:26;23.10;78.50
63317;DHT22;49822;41.468;13.560;2023-07-13T01:35:52;23.20;77.90
63317;DHT22;49822;41.468;13.560;2023-07-13T01:38:21;23.20;78.30
63317;DHT22;49822;41.468;13.560;2023-07-13T01:40:48;23.30;78.00
63317;DHT22;49822;41.468;13.560;2023-07-13T01:43:15;23.40;77.80
63317;DHT22;49822;41.468;13.560;2023-07-13T01:45:42;23.40;77.60
63317;DHT22;49822;41.468;13.560;2023-07-13T01:48:12;23.30;77.80
63317;DHT22;49822;41.468;13.560;2023-07-13T01:50:38;23.10;78.10
63317;DHT22;49822;41.468;13.560;2023-07-13T01:53:05;23.20;78.20
63317;DHT22;49822;41.468;13.560;2023-07-13T01:55:31;23.10;78.10
63317;DHT22;49822;41.468;13.560;2023-07-13T01:57:58;23.20;78.00
63317;DHT22;49822;41.468;13.560;2023-07-13T02:00:26;22.80;78.00
63317;DHT22;49822;41.468;13.560;2023-07-13T02:02:55;22.30;78.20
63317;DHT22;49822;41.468;13.560;2023-07-13T02:05:21;22.20;78.20
63317;DHT22;49822;41.468;13.560;2023-07-13T02:07:48;22.30;78.60
63317;DHT22;49822;41.468;13.560;2023-07-13T02:10:15;22.40;78.60
63317;DHT22;49822;41.468;13.560;2023-07-13T02:12:41;22.60;78.60
63317;DHT22;49822;41.468;13.560;2023-07-13T02:15:08;22.70;78.50
63317;DHT22;49822;41.468;13.560;2023-07-13T02:17:35;22.80;78.30
63317;DHT22;49822;41.468;13.560;2023-07-13T02:20:03;22.80;78.20
63317;DHT22;49822;41.468;13.560;2023-07-13T02:22:30;22.90;78.00
63317;DHT22;49822;41.468;13.560;2023-07-13T02:24:57;23.00;78.30
63317;DHT22;49822;41.468;13.560;2023-07-13T02:27:23;22.80;78.30
63317;DHT22;49822;41.468;13.560;2023-07-13T02:29:49;22.50;78.70
63317;DHT22;49822;41.468;13.560;2023-07-13T02:32:18;22.40;78.80
63317;DHT22;49822;41.468;13.560;2023-07-13T02:34:44;22.50;78.30
63317;DHT22;49822;41.468;13.560;2023-07-13T02:37:10;22.50;78.70
63317;DHT22;49822;41.468;13.560;2023-07-13T02:39:36;22.40;79.10
63317;DHT22;49822;41.468;13.560;2023-07-13T02:42:03;22.50;78.70
63317;DHT22;49822;41.468;13.560;2023-07-13T02:44:29;22.50;78.40
63317;DHT22;49822;41.468;13.560;2023-07-13T02:46:55;22.50;78.50
63317;DHT22;49822;41.468;13.560;2023-07-13T02:49:21;22.60;78.60
63317;DHT22;49822;41.468;13.560;2023-07-13T02:51:48;22.70;78.60
63317;DHT22;49822;41.468;13.560;2023-07-13T02:54:14;22.80;78.40
63317;DHT22;49822;41.468;13.560;2023-07-13T02:56:41;22.80;78.40
63317;DHT22;49822;41.468;13.560;2023-07-13T02:59:07;22.70;78.80
63317;DHT22;49822;41.468;13.560;2023-07-13T03:01:33;22.70;78.70
63317;DHT22;49822;41.468;13.560;2023-07-13T03:04:02;22.80;78.90
63317;DHT22;49822;41.468;13.560;2023-07-13T03:06:31;22.80;78.90
63317;DHT22;49822;41.468;13.560;2023-07-13T03:08:58;22.70;78.90
63317;DHT22;49822;41.468;13.560;2023-07-13T03:11:26;22.60;79.10
63317;DHT22;49822;41.468;13.560;2023-07-13T03:14:18;22.50;79.20
63317;DHT22;49822;41.468;13.560;2023-07-13T03:16:44;22.60;79.40
63317;DHT22;49822;41.468;13.560;2023-07-13T03:19:12;22.60;79.40
63317;DHT22;49822;41.468;13.560;2023-07-13T03:21:39;22.60;79.60
63317;DHT22;49822;41.468;13.560;2023-07-13T03:24:05;22.60;79.30
63317;DHT22;49822;41.468;13.560;2023-07-13T03:26:32;22.60;79.30
63317;DHT22;49822;41.468;13.560;2023-07-13T03:28:58;22.60;79.60
63317;DHT22;49822;41.468;13.560;2023-07-13T03:31:32;22.50;79.60
63317;DHT22;49822;41.468;13.560;2023-07-13T03:33:59;22.50;79.00
63317;DHT22;49822;41.468;13.560;2023-07-13T03:36:29;22.50;79.10
63317;DHT22;49822;41.468;13.560;2023-07-13T03:39:01;22.60;79.30
63317;DHT22;49822;41.468;13.560;2023-07-13T03:41:35;22.50;79.20
63317;DHT22;49822;41.468;13.560;2023-07-13T03:44:01;22.40;79.20
63317;DHT22;49822;41.468;13.560;2023-07-13T03:46:28;22.40;79.90
63317;DHT22;49822;41.468;13.560;2023-07-13T03:48:56;22.30;79.50
63317;DHT22;49822;41.468;13.560;2023-07-13T03:51:23;22.30;79.60
63317;DHT22;49822;41.468;13.560;2023-07-13T03:53:50;22.20;79.90
63317;DHT22;49822;41.468;13.560;2023-07-13T03:56:19;22.10;80.00
63317;DHT22;49822;41.468;13.560;2023-07-13T03:58:47;22.20;80.00
63317;DHT22;49822;41.468;13.560;2023-07-13T04:01:19;22.30;79.80
63317;DHT22;49822;41.468;13.560;2023-07-13T04:03:46;22.30;79.90
63317;DHT22;49822;41.468;13.560;2023-07-13T04:06:25;22.40;80.20
63317;DHT22;49822;41.468;13.560;2023-07-13T04:08:54;22.40;79.80
63317;DHT22;49822;41.468;13.560;2023-07-13T04:11:22;22.40;79.80
63317;DHT22;49822;41.468;13.560;2023-07-13T04:13:51;22.40;79.80
63317;DHT22;49822;41.468;13.560;2023-07-13T04:16:19;22.20;80.20
63317;DHT22;49822;41.468;13.560;2023-07-13T04:18:48;21.90;80.30
63317;DHT22;49822;41.468;13.560;2023-07-13T04:21:15;21.90;81.30
63317;DHT22;49822;41.468;13.560;2023-07-13T04:23:41;21.80;81.30
63317;DHT22;49822;41.468;13.560;2023-07-13T04:26:08;21.90;80.60
63317;DHT22;49822;41.468;13.560;2023-07-13T04:28:34;21.70;80.60
63317;DHT22;49822;41.468;13.560;2023-07-13T04:31:01;21.80;80.70
63317;DHT22;49822;41.468;13.560;2023-07-13T04:33:28;21.80;80.50
63317;DHT22;49822;41.468;13.560;2023-07-13T04:35:55;22.10;80.70
63317;DHT22;49822;41.468;13.560;2023-07-13T04:38:30;22.20;80.40
63317;DHT22;49822;41.468;13.560;2023-07-13T04:40:56;22.30;79.40
63317;DHT22;49822;41.468;13.560;2023-07-13T04:43:23;22.30;78.80
63317;DHT22;49822;41.468;13.560;2023-07-13T04:45:52;22.30;78.70
63317;DHT22;49822;41.468;13.560;2023-07-13T04:48:20;22.50;78.90
63317;DHT22;49822;41.468;13.560;2023-07-13T04:50:47;22.70;78.60
63317;DHT22;49822;41.468;13.560;2023-07-13T04:53:13;22.90;78.40
63317;DHT22;49822;41.468;13.560;2023-07-13T04:55:40;23.00;78.60
63317;DHT22;49822;41.468;13.560;2023-07-13T04:58:06;23.10;79.00
63317;DHT22;49822;41.468;13.560;2023-07-13T05:00:34;23.20;78.60
63317;DHT22;49822;41.468;13.560;2023-07-13T05:03:03;23.30;78.20
63317;DHT22;49822;41.468;13.560;2023-07-13T05:05:30;23.40;78.50
63317;DHT22;49822;41.468;13.560;2023-07-13T05:07:56;23.40;78.60
63317;DHT22;49822;41.468;13.560;2023-07-13T05:10:37;23.60;79.30
63317;DHT22;49822;41.468;13.560;2023-07-13T05:13:25;23.60;80.00
63317;DHT22;49822;41.468;13.560;2023-07-13T05:16:05;23.70;78.50
63317;DHT22;49822;41.468;13.560;2023-07-13T05:18:42;23.80;79.00
63317;DHT22;49822;41.468;13.560;2023-07-13T05:21:11;23.90;78.80
63317;DHT22;49822;41.468;13.560;2023-07-13T05:23:39;23.90;79.10
63317;DHT22;49822;41.468;13.560;2023-07-13T05:26:08;24.00;79.00
63317;DHT22;49822;41.468;13.560;2023-07-13T05:28:34;24.10;78.70
63317;DHT22;49822;41.468;13.560;2023-07-13T05:31:03;24.20;78.80
63317;DHT22;49822;41.468;13.560;2023-07-13T05:33:33;24.30;79.20
63317;DHT22;49822;41.468;13.560;2023-07-13T05:36:12;24.50;79.20
63317;DHT22;49822;41.468;13.560;2023-07-13T05:38:38;24.60;79.60
63317;DHT22;49822;41.468;13.560;2023-07-13T05:41:05;24.60;78.90
63317;DHT22;49822;41.468;13.560;2023-07-13T05:43:32;24.70;79.60
63317;DHT22;49822;41.468;13.560;2023-07-13T05:46:03;24.80;78.90
63317;DHT22;49822;41.468;13.560;2023-07-13T05:48:37;24.80;78.90
63317;DHT22;49822;41.468;13.560;2023-07-13T05:51:06;24.90;78.70
63317;DHT22;49822;41.468;13.560;2023-07-13T05:53:44;25.10;78.50
63317;DHT22;49822;41.468;13.560;2023-07-13T05:56:19;25.20;78.10
63317;DHT22;49822;41.468;13.560;2023-07-13T05:58:54;25.40;77.40
63317;DHT22;49822;41.468;13.560;2023-07-13T06:01:24;25.40;77.00
63317;DHT22;49822;41.468;13.560;2023-07-13T06:03:54;25.50;76.90
63317;DHT22;49822;41.468;13.560;2023-07-13T06:06:31;25.70;76.40
63317;DHT22;49822;41.468;13.560;2023-07-13T06:09:15;25.80;76.20
63317;DHT22;49822;41.468;13.560;2023-07-13T06:11:59;25.70;76.40
63317;DHT22;49822;41.468;13.560;2023-07-13T06:14:27;25.90;76.30
63317;DHT22;49822;41.468;13.560;2023-07-13T06:16:59;26.00;76.30
63317;DHT22;49822;41.468;13.560;2023-07-13T06:19:42;26.10;76.20
63317;DHT22;49822;41.468;13.560;2023-07-13T06:22:10;26.20;76.10
63317;DHT22;49822;41.468;13.560;2023-07-13T06:24:45;26.20;76.40
63317;DHT22;49822;41.468;13.560;2023-07-13T06:27:11;26.20;76.10
63317;DHT22;49822;41.468;13.560;2023-07-13T06:32:53;26.40;75.70
63317;DHT22;49822;41.468;13.560;2023-07-13T06:35:19;26.50;75.60
63317;DHT22;49822;41.468;13.560;2023-07-13T06:37:46;26.70;75.30
63317;DHT22;49822;41.468;13.560;2023-07-13T06:40:13;26.70;75.30
63317;DHT22;49822;41.468;13.560;2023-07-13T06:42:39;26.80;75.00
63317;DHT22;49822;41.468;13.560;2023-07-13T06:45:07;27.00;74.90
63317;DHT22;49822;41.468;13.560;2023-07-13T06:47:35;26.90;76.00
63317;DHT22;49822;41.468;13.560;2023-07-13T06:50:01;27.10;75.10
63317;DHT22;49822;41.468;13.560;2023-07-13T06:52:27;27.10;74.80
63317;DHT22;49822;41.468;13.560;2023-07-13T06:54:55;27.30;74.70
63317;DHT22;49822;41.468;13.560;2023-07-13T06:57:21;27.40;74.50
63317;DHT22;49822;41.468;13.560;2023-07-13T06:59:48;27.50;74.00
63317;DHT22;49822;41.468;13.560;2023-07-13T07:02:14;27.50;74.40
63317;DHT22;49822;41.468;13.560;2023-07-13T07:08:02;27.80;74.30
63317;DHT22;49822;41.468;13.560;2023-07-13T07:10:30;27.80;74.20
63317;DHT22;49822;41.468;13.560;2023-07-13T07:12:57;28.00;74.20
63317;DHT22;49822;41.468;13.560;2023-07-13T07:15:25;28.20;74.30
63317;DHT22;49822;41.468;13.560;2023-07-13T07:17:53;28.10;74.60
63317;DHT22;49822;41.468;13.560;2023-07-13T07:20:19;28.20;74.40
63317;DHT22;49822;41.468;13.560;2023-07-13T07:22:47;28.30;74.00
63317;DHT22;49822;41.468;13.560;2023-07-13T07:25:13;28.30;74.00
63317;DHT22;49822;41.468;13.560;2023-07-13T07:27:39;28.40;73.10
63317;DHT22;49822;41.468;13.560;2023-07-13T07:30:07;28.50;73.40
63317;DHT22;49822;41.468;13.560;2023-07-13T07:32:35;28.50;72.90
63317;DHT22;49822;41.468;13.560;2023-07-13T07:35:01;28.60;72.90
63317;DHT22;49822;41.468;13.560;2023-07-13T07:37:27;28.80;72.90
63317;DHT22;49822;41.468;13.560;2023-07-13T07:39:53;28.80;71.80
63317;DHT22;49822;41.468;13.560;2023-07-13T07:42:20;28.90;71.90
63317;DHT22;49822;41.468;13.560;2023-07-13T07:44:46;29.00;71.30
63317;DHT22;49822;41.468;13.560;2023-07-13T07:47:12;29.20;70.20
63317;DHT22;49822;41.468;13.560;2023-07-13T07:49:38;29.30;69.80
63317;DHT22;49822;41.468;13.560;2023-07-13T07:52:04;29.40;68.20
63317;DHT22;49822;41.468;13.560;2023-07-13T07:54:30;29.40;68.70
63317;DHT22;49822;41.468;13.560;2023-07-13T07:56:56;29.50;68.90
63317;DHT22;49822;41.468;13.560;2023-07-13T07:59:22;29.60;69.00
63317;DHT22;49822;41.468;13.560;2023-07-13T08:01:49;29.70;69.00
63317;DHT22;49822;41.468;13.560;2023-07-13T08:04:16;29.90;67.20
63317;DHT22;49822;41.468;13.560;2023-07-13T08:06:42;30.00;66.30
63317;DHT22;49822;41.468;13.560;2023-07-13T08:09:08;30.00;67.40
63317;DHT22;49822;41.468;13.560;2023-07-13T08:11:34;30.00;67.10
63317;DHT22;49822;41.468;13.560;2023-07-13T08:14:01;30.20;67.80
63317;DHT22;49822;41.468;13.560;2023-07-13T08:16:27;30.30;67.20
63317;DHT22;49822;41.468;13.560;2023-07-13T08:18:53;30.30;67.20
63317;DHT22;49822;41.468;13.560;2023-07-13T08:21:19;30.40;66.50
63317;DHT22;49822;41.468;13.560;2023-07-13T08:23:45;30.50;65.30
63317;DHT22;49822;41.468;13.560;2023-07-13T08:26:12;30.50;64.80
63317;DHT22;49822;41.468;13.560;2023-07-13T08:28:38;30.60;64.60
63317;DHT22;49822;41.468;13.560;2023-07-13T08:31:05;30.60;65.50
63317;DHT22;49822;41.468;13.560;2023-07-13T08:33:34;30.80;65.20
63317;DHT22;49822;41.468;13.560;2023-07-13T08:36:01;30.80;65.10
63317;DHT22;49822;41.468;13.560;2023-07-13T08:38:27;30.90;64.70
63317;DHT22;49822;41.468;13.560;2023-07-13T08:40:55;30.90;64.60
63317;DHT22;49822;41.468;13.560;2023-07-13T08:43:41;31.10;63.80
63317;DHT22;49822;41.468;13.560;2023-07-13T08:48:44;31.30;65.30
63317;DHT22;49822;41.468;13.560;2023-07-13T08:51:35;31.30;64.70
63317;DHT22;49822;41.468;13.560;2023-07-13T08:54:08;31.20;66.20
63317;DHT22;49822;41.468;13.560;2023-07-13T08:56:35;31.40;66.50
63317;DHT22;49822;41.468;13.560;2023-07-13T08:59:15;31.70;65.60
63317;DHT22;49822;41.468;13.560;2023-07-13T09:04:18;31.80;64.70
63317;DHT22;49822;41.468;13.560;2023-07-13T09:10:05;32.00;63.50
63317;DHT22;49822;41.468;13.560;2023-07-13T09:12:57;32.00;61.80
63317;DHT22;49822;41.468;13.560;2023-07-13T09:15:36;32.10;62.10
63317;DHT22;49822;41.468;13.560;2023-07-13T09:18:29;32.20;62.10
63317;DHT22;49822;41.468;13.560;2023-07-13T09:21:00;32.20;62.70
63317;DHT22;49822;41.468;13.560;2023-07-13T09:23:30;32.20;61.50
63317;DHT22;49822;41.468;13.560;2023-07-13T09:28:47;32.40;61.70
63317;DHT22;49822;41.468;13.560;2023-07-13T09:31:21;32.60;61.30
63317;DHT22;49822;41.468;13.560;2023-07-13T09:33:49;32.70;60.00
63317;DHT22;49822;41.468;13.560;2023-07-13T09:36:24;32.70;60.10
63317;DHT22;49822;41.468;13.560;2023-07-13T09:39:14;32.80;59.60
63317;DHT22;49822;41.468;13.560;2023-07-13T09:44:11;33.00;60.30
63317;DHT22;49822;41.468;13.560;2023-07-13T09:46:43;33.10;60.60
63317;DHT22;49822;41.468;13.560;2023-07-13T09:49:10;33.20;58.10
63317;DHT22;49822;41.468;13.560;2023-07-13T09:51:38;33.20;60.10
63317;DHT22;49822;41.468;13.560;2023-07-13T09:54:08;33.40;59.90
63317;DHT22;49822;41.468;13.560;2023-07-13T09:56:42;33.40;59.80
63317;DHT22;49822;41.468;13.560;2023-07-13T09:59:19;33.50;60.80
63317;DHT22;49822;41.468;13.560;2023-07-13T10:01:46;33.70;59.20
63317;DHT22;49822;41.468;13.560;2023-07-13T10:04:17;33.60;60.10
63317;DHT22;49822;41.468;13.560;2023-07-13T10:06:47;33.80;59.80
63317;DHT22;49822;41.468;13.560;2023-07-13T10:09:17;33.80;59.70
63317;DHT22;49822;41.468;13.560;2023-07-13T10:11:45;33.90;60.80
63317;DHT22;49822;41.468;13.560;2023-07-13T10:14:13;34.10;60.50
63317;DHT22;49822;41.468;13.560;2023-07-13T10:16:41;34.20;60.00
63317;DHT22;49822;41.468;13.560;2023-07-13T10:19:25;34.30;60.10
63317;DHT22;49822;41.468;13.560;2023-07-13T10:22:02;34.50;59.90
63317;DHT22;49822;41.468;13.560;2023-07-13T10:24:52;34.60;59.60
63317;DHT22;49822;41.468;13.560;2023-07-13T10:27:21;34.70;58.30
63317;DHT22;49822;41.468;13.560;2023-07-13T10:33:13;34.60;57.70
63317;DHT22;49822;41.468;13.560;2023-07-13T10:35:43;34.80;57.60
63317;DHT22;49822;41.468;13.560;2023-07-13T10:38:21;34.90;56.60
63317;DHT22;49822;41.468;13.560;2023-07-13T10:41:11;34.90;56.50
63317;DHT22;49822;41.468;13.560;2023-07-13T10:43:46;35.00;57.40
63317;DHT22;49822;41.468;13.560;2023-07-13T10:46:17;35.00;56.90
63317;DHT22;49822;41.468;13.560;2023-07-13T10:48:46;35.10;57.20
63317;DHT22;49822;41.468;13.560;2023-07-13T10:51:16;35.20;57.20
63317;DHT22;49822;41.468;13.560;2023-07-13T10:53:43;35.40;57.20
63317;DHT22;49822;41.468;13.560;2023-07-13T10:56:24;35.30;54.70
63317;DHT22;49822;41.468;13.560;2023-07-13T10:59:09;34.90;53.40
63317;DHT22;49822;41.468;13.560;2023-07-13T11:01:46;34.70;55.00
63317;DHT22;49822;41.468;13.560;2023-07-13T11:04:15;34.50;49.10
63317;DHT22;49822;41.468;13.560;2023-07-13T11:06:43;34.30;52.20
63317;DHT22;49822;41.468;13.560;2023-07-13T11:12:02;34.20;51.30
63317;DHT22;49822;41.468;13.560;2023-07-13T11:15:00;34.20;51.70
63317;DHT22;49822;41.468;13.560;2023-07-13T11:20:20;33.80;51.40
63317;DHT22;49822;41.468;13.560;2023-07-13T11:23:08;33.90;50.60
63317;DHT22;49822;41.468;13.560;2023-07-13T11:25:36;33.90;51.60
63317;DHT22;49822;41.468;13.560;2023-07-13T11:30:46;34.00;51.00
63317;DHT22;49822;41.468;13.560;2023-07-13T11:36:19;34.10;50.60
63317;DHT22;49822;41.468;13.560;2023-07-13T11:41:58;34.10;51.10
63317;DHT22;49822;41.468;13.560;2023-07-13T11:44:24;34.00;50.30
63317;DHT22;49822;41.468;13.560;2023-07-13T11:46:56;34.30;50.90
63317;DHT22;49822;41.468;13.560;2023-07-13T11:49:24;34.30;52.60
63317;DHT22;49822;41.468;13.560;2023-07-13T11:51:53;34.30;50.90
63317;DHT22;49822;41.468;13.560;2023-07-13T11:56:57;34.20;50.70
63317;DHT22;49822;41.468;13.560;2023-07-13T11:59:28;34.20;51.20
63317;DHT22;49822;41.468;13.560;2023-07-13T12:01:55;34.20;51.90
63317;DHT22;49822;41.468;13.560;2023-07-13T12:04:28;34.30;51.50
63317;DHT22;49822;41.468;13.560;2023-07-13T12:07:04;34.20;51.10
63317;DHT22;49822;41.468;13.560;2023-07-13T12:09:33;34.10;50.60
63317;DHT22;49822;41.468;13.560;2023-07-13T12:11:59;33.90;51.60
63317;DHT22;49822;41.468;13.560;2023-07-13T12:14:27;33.80;53.20
63317;DHT22;49822;41.468;13.560;2023-07-13T12:16:54;33.90;53.00
63317;DHT22;49822;41.468;13.560;2023-07-13T12:19:26;34.00;52.20
63317;DHT22;49822;41.468;13.560;2023-07-13T12:21:55;33.90;51.80
63317;DHT22;49822;41.468;13.560;2023-07-13T12:24:22;33.80;50.80
63317;DHT22;49822;41.468;13.560;2023-07-13T12:26:54;33.80;50.70
63317;DHT22;49822;41.468;13.560;2023-07-13T12:29:20;33.80;51.00
63317;DHT22;49822;41.468;13.560;2023-07-13T12:31:48;33.90;52.70
63317;DHT22;49822;41.468;13.560;2023-07-13T12:34:17;34.00;52.70
63317;DHT22;49822;41.468;13.560;2023-07-13T12:42:25;34.00;51.60
63317;DHT22;49822;41.468;13.560;2023-07-13T12:45:23;33.80;52.30
63317;DHT22;49822;41.468;13.560;2023-07-13T12:47:58;33.50;51.70
63317;DHT22;49822;41.468;13.560;2023-07-13T12:50:33;33.50;52.70
63317;DHT22;49822;41.468;13.560;2023-07-13T12:53:02;33.70;52.90
63317;DHT22;49822;41.468;13.560;2023-07-13T12:55:30;33.80;54.00
63317;DHT22;49822;41.468;13.560;2023-07-13T12:57:59;33.50;51.50
63317;DHT22;49822;41.468;13.560;2023-07-13T13:00:37;33.70;53.10
63317;DHT22;49822;41.468;13.560;2023-07-13T13:03:13;33.60;52.70
63317;DHT22;49822;41.468;13.560;2023-07-13T13:05:44;33.40;52.80
63317;DHT22;49822;41.468;13.560;2023-07-13T13:08:14;33.60;53.40
63317;DHT22;49822;41.468;13.560;2023-07-13T13:10:40;33.50;52.60
63317;DHT22;49822;41.468;13.560;2023-07-13T13:13:06;33.50;51.30
63317;DHT22;49822;41.468;13.560;2023-07-13T13:15:35;33.30;52.50
63317;DHT22;49822;41.468;13.560;2023-07-13T13:18:04;33.60;52.40
63317;DHT22;49822;41.468;13.560;2023-07-13T13:20:31;33.60;53.60
63317;DHT22;49822;41.468;13.560;2023-07-13T13:22:57;33.60;53.20
63317;DHT22;49822;41.468;13.560;2023-07-13T13:25:24;33.80;53.50
63317;DHT22;49822;41.468;13.560;2023-07-13T13:27:51;34.00;52.70
63317;DHT22;49822;41.468;13.560;2023-07-13T13:30:18;34.00;52.30
63317;DHT22;49822;41.468;13.560;2023-07-13T13:32:48;34.10;53.20
63317;DHT22;49822;41.468;13.560;2023-07-13T13:35:15;34.10;53.90
63317;DHT22;49822;41.468;13.560;2023-07-13T13:37:42;34.10;53.20
63317;DHT22;49822;41.468;13.560;2023-07-13T13:40:19;34.20;54.00
63317;DHT22;49822;41.468;13.560;2023-07-13T13:42:46;33.80;54.80
63317;DHT22;49822;41.468;13.560;2023-07-13T13:45:12;33.90;54.60
63317;DHT22;49822;41.468;13.560;2023-07-13T13:47:39;34.10;54.40
63317;DHT22;49822;41.468;13.560;2023-07-13T13:50:13;33.90;53.80
63317;DHT22;49822;41.468;13.560;2023-07-13T13:52:41;33.70;54.20
63317;DHT22;49822;41.468;13.560;2023-07-13T13:55:18;33.60;53.90
63317;DHT22;49822;41.468;13.560;2023-07-13T13:57:46;33.40;54.70
63317;DHT22;49822;41.468;13.560;2023-07-13T14:00:13;33.70;55.00
63317;DHT22;49822;41.468;13.560;2023-07-13T14:02:58;33.30;54.30
63317;DHT22;49822;41.468;13.560;2023-07-13T14:05:26;33.30;52.90
63317;DHT22;49822;41.468;13.560;2023-07-13T14:07:53;33.10;53.40
63317;DHT22;49822;41.468;13.560;2023-07-13T14:10:20;33.20;53.70
63317;DHT22;49822;41.468;13.560;2023-07-13T14:12:51;33.00;53.80
63317;DHT22;49822;41.468;13.560;2023-07-13T14:15:21;32.90;53.90
63317;DHT22;49822;41.468;13.560;2023-07-13T14:17:49;33.00;55.50
63317;DHT22;49822;41.468;13.560;2023-07-13T14:20:18;32.90;55.70
63317;DHT22;49822;41.468;13.560;2023-07-13T14:22:45;33.20;55.30
63317;DHT22;49822;41.468;13.560;2023-07-13T14:25:13;33.00;56.30
63317;DHT22;49822;41.468;13.560;2023-07-13T14:27:41;33.20;55.60
63317;DHT22;49822;41.468;13.560;2023-07-13T14:30:21;33.20;55.70
63317;DHT22;49822;41.468;13.560;2023-07-13T14:32:51;33.10;55.00
63317;DHT22;49822;41.468;13.560;2023-07-13T14:35:18;33.00;54.80
63317;DHT22;49822;41.468;13.560;2023-07-13T14:37:46;33.10;55.30
63317;DHT22;49822;41.468;13.560;2023-07-13T14:42:39;32.90;54.40
63317;DHT22;49822;41.468;13.560;2023-07-13T14:45:12;32.80;55.10
63317;DHT22;49822;41.468;13.560;2023-07-13T14:47:38;32.60;55.90
63317;DHT22;49822;41.468;13.560;2023-07-13T14:50:07;32.80;55.30
63317;DHT22;49822;41.468;13.560;2023-07-13T14:52:36;32.90;55.00
63317;DHT22;49822;41.468;13.560;2023-07-13T14:55:04;33.10;55.90
63317;DHT22;49822;41.468;13.560;2023-07-13T14:57:30;33.10;54.40
63317;DHT22;49822;41.468;13.560;2023-07-13T14:59:56;33.00;56.20
63317;DHT22;49822;41.468;13.560;2023-07-13T15:04:55;33.00;55.30
63317;DHT22;49822;41.468;13.560;2023-07-13T15:07:22;32.90;53.30
63317;DHT22;49822;41.468;13.560;2023-07-13T15:09:49;32.70;55.40
63317;DHT22;49822;41.468;13.560;2023-07-13T15:12:17;32.70;55.50
63317;DHT22;49822;41.468;13.560;2023-07-13T15:14:43;32.70;56.40
63317;DHT22;49822;41.468;13.560;2023-07-13T15:17:39;32.30;55.50
63317;DHT22;49822;41.468;13.560;2023-07-13T15:20:27;32.30;55.10
63317;DHT22;49822;41.468;13.560;2023-07-13T15:22:55;32.30;55.60
63317;DHT22;49822;41.468;13.560;2023-07-13T15:25:23;32.10;56.60
63317;DHT22;49822;41.468;13.560;2023-07-13T15:27:54;32.20;56.60
63317;DHT22;49822;41.468;13.560;2023-07-13T15:30:22;32.30;56.70
63317;DHT22;49822;41.468;13.560;2023-07-13T15:32:51;32.30;57.50
63317;DHT22;49822;41.468;13.560;2023-07-13T15:35:19;32.50;56.80
63317;DHT22;49822;41.468;13.560;2023-07-13T15:37:46;32.50;57.80
63317;DHT22;49822;41.468;13.560;2023-07-13T15:40:13;32.60;57.20
63317;DHT22;49822;41.468;13.560;2023-07-13T15:42:41;32.60;59.20
63317;DHT22;49822;41.468;13.560;2023-07-13T15:45:23;32.70;58.90
63317;DHT22;49822;41.468;13.560;2023-07-13T15:47:53;32.60;58.60
63317;DHT22;49822;41.468;13.560;2023-07-13T15:50:24;32.80;59.60
63317;DHT22;49822;41.468;13.560;2023-07-13T15:52:53;32.70;59.30
63317;DHT22;49822;41.468;13.560;2023-07-13T15:55:21;32.90;59.70
63317;DHT22;49822;41.468;13.560;2023-07-13T15:57:49;32.90;58.90
63317;DHT22;49822;41.468;13.560;2023-07-13T16:00:25;32.40;58.80
63317;DHT22;49822;41.468;13.560;2023-07-13T16:02:53;32.00;57.20
63317;DHT22;49822;41.468;13.560;2023-07-13T16:05:21;31.90;56.20
63317;DHT22;49822;41.468;13.560;2023-07-13T16:07:49;31.80;55.30
63317;DHT22;49822;41.468;13.560;2023-07-13T16:10:18;31.80;56.80
63317;DHT22;49822;41.468;13.560;2023-07-13T16:12:45;31.60;55.80
63317;DHT22;49822;41.468;13.560;2023-07-13T16:15:15;31.60;56.10
63317;DHT22;49822;41.468;13.560;2023-07-13T16:17:43;31.80;55.20
63317;DHT22;49822;41.468;13.560;2023-07-13T16:20:10;31.70;56.20
63317;DHT22;49822;41.468;13.560;2023-07-13T16:22:40;31.80;56.20